KFDY

Findlay Airport

Findlay, Ohio, USA
METAR KFDY 181953Z AUTO 22012KT 9SM BKN014 OVC055 08/04 A2992 RMK AO2 SLP133 T00830044
Observed Flight Rules
Dec-18 @ 19:53 UTC (22 minutes ago) Marginal Visual Flight Rules
Wind Visibility Clouds
220° at 12 knots 9 miles
  • Broken at 1,400' AGL
  • Overcast at 5,500' AGL
Temperatures Readings
Current 8°C / 46°F
Dewpoint 4°C / 39°F
Humidity 76%
Altimeter 29.92" Hg
Pressure 1013.3 hPa
Elevation 247
METAR KFDY 181953Z AUTO 22012KT 9SM BKN014 OVC055 08/04 A2992 RMK AO2 SLP133 T00830044
Observed Flight Rules
Dec-18 @ 19:53 UTC
(22 minutes ago)
MVFR
Wind Visibility
220° at 12 knots 9 miles
Clouds
  • Broken at 1,400' AGL
  • Overcast at 5,500' AGL
Temperature Dewpoint
8°C / 46°F 4°C / 39°F
Humidity Altimeter Pressure
76% 29.92" Hg 1013.3 hPa